Wetterdaten: Woche 20.11.17 - 26.11.17 (KW47)
Datum Zeit Temp. A. Feuchte A. Luftdruck Regen Wind Richtung Taupunkt Windchill Windben
20.11.2017 00:00 0,2 C 96 % 1024,9 hPa 0,0 l/m 0,3 km/h (0 Bft) NO -0,3 C 0,2 C 1,7 km/h (1 Bft)
20.11.2017 01:00 0,4 C 96 % 1024,8 hPa 0,0 l/m 0,1 km/h (0 Bft) O-NO -0,2 C 0,4 C 0,7 km/h (0 Bft)
20.11.2017 02:00 0,3 C 96 % 1024,5 hPa 0,0 l/m 0,4 km/h (0 Bft) NO -0,3 C 0,3 C 2,0 km/h (1 Bft)
20.11.2017 03:00 -0,0 C 96 % 1024,0 hPa 0,0 l/m 1,4 km/h (1 Bft) NO -0,6 C -0,0 C 3,9 km/h (1 Bft)
20.11.2017 04:00 -0,0 C 96 % 1023,9 hPa 0,0 l/m 0,3 km/h (0 Bft) N -0,7 C -0,0 C 2,1 km/h (1 Bft)
20.11.2017 05:00 -0,4 C 96 % 1023,7 hPa 0,0 l/m 0,1 km/h (0 Bft) N -0,9 C -0,4 C 1,7 km/h (1 Bft)
20.11.2017 06:00 -0,5 C 96 % 1023,7 hPa 0,0 l/m 0,5 km/h (0 Bft) NW -1,0 C -0,5 C 2,3 km/h (1 Bft)
20.11.2017 07:00 -0,1 C 96 % 1023,9 hPa 0,0 l/m 1,1 km/h (1 Bft) N-NO -0,7 C -0,1 C 4,1 km/h (1 Bft)
20.11.2017 08:00 0,3 C 96 % 1023,8 hPa 0,0 l/m 0,9 km/h (0 Bft) O-NO -0,4 C 0,3 C 3,9 km/h (1 Bft)
20.11.2017 09:00 0,7 C 95 % 1024,1 hPa 0,0 l/m 0,6 km/h (0 Bft) O-NO -0,0 C 0,7 C 3,5 km/h (1 Bft)
20.11.2017 10:00 1,0 C 94 % 1024,2 hPa 0,0 l/m 1,0 km/h (0 Bft) O-NO 0,2 C 1,0 C 5,1 km/h (1 Bft)
20.11.2017 11:00 1,7 C 92 % 1023,8 hPa 0,3 l/m 2,9 km/h (1 Bft) O-NO 0,5 C 1,7 C 6,9 km/h (2 Bft)
20.11.2017 12:00 2,0 C 91 % 1023,2 hPa 0,3 l/m 3,1 km/h (1 Bft) O 0,7 C 2,0 C 7,3 km/h (2 Bft)
20.11.2017 13:00 2,3 C 91 % 1022,2 hPa 0,0 l/m 2,9 km/h (1 Bft) O 1,0 C 2,3 C 8,0 km/h (2 Bft)
20.11.2017 14:00 2,3 C 90 % 1021,7 hPa 0,0 l/m 3,5 km/h (1 Bft) O-NO 0,8 C 2,3 C 9,7 km/h (2 Bft)
20.11.2017 15:00 2,0 C 90 % 1021,6 hPa 0,3 l/m 3,8 km/h (1 Bft) O-NO 0,6 C 2,0 C 10,2 km/h (2 Bft)
20.11.2017 16:00 1,7 C 91 % 1021,1 hPa 0,0 l/m 5,4 km/h (2 Bft) NO 0,3 C 1,7 C 14,4 km/h (3 Bft)
20.11.2017 17:00 1,7 C 91 % 1020,7 hPa 0,0 l/m 4,4 km/h (1 Bft) NO 0,4 C 1,7 C 11,7 km/h (2 Bft)
20.11.2017 18:00 1,9 C 91 % 1020,4 hPa 0,0 l/m 5,7 km/h (2 Bft) NO 0,5 C 1,8 C 14,5 km/h (3 Bft)
20.11.2017 19:00 1,7 C 94 % 1020,3 hPa 0,0 l/m 4,4 km/h (1 Bft) N-NO 0,9 C 1,7 C 11,1 km/h (2 Bft)
20.11.2017 20:00 2,1 C 96 % 1020,0 hPa 0,3 l/m 4,3 km/h (1 Bft) NO 1,5 C 2,1 C 10,1 km/h (2 Bft)
20.11.2017 21:00 2,7 C 95 % 1019,3 hPa 0,0 l/m 5,1 km/h (1 Bft) N-NO 2,0 C 2,7 C 14,8 km/h (3 Bft)
20.11.2017 22:00 3,5 C 94 % 1019,3 hPa 0,0 l/m 3,9 km/h (1 Bft) O-NO 2,6 C 3,3 C 12,2 km/h (2 Bft)
20.11.2017 23:00 3,5 C 96 % 1019,3 hPa 0,3 l/m 3,5 km/h (1 Bft) O-NO 2,9 C 3,5 C 9,7 km/h (2 Bft)
21.11.2017 00:00 3,7 C 96 % 1019,5 hPa 0,8 l/m 3,8 km/h (1 Bft) O-NO 3,2 C 3,7 C 9,6 km/h (2 Bft)
21.11.2017 01:00 3,7 C 95 % 1019,0 hPa 0,8 l/m 5,5 km/h (2 Bft) O 3,0 C 3,5 C 14,5 km/h (3 Bft)
21.11.2017 02:00 3,8 C 96 % 1018,9 hPa 0,3 l/m 5,9 km/h (2 Bft) O-NO 3,2 C 3,5 C 14,2 km/h (3 Bft)
21.11.2017 03:00 4,1 C 96 % 1019,2 hPa 0,3 l/m 6,7 km/h (2 Bft) O-NO 3,5 C 3,7 C 16,6 km/h (3 Bft)
21.11.2017 04:00 4,1 C 96 % 1019,2 hPa 0,5 l/m 3,8 km/h (1 Bft) NO 3,6 C 4,1 C 9,8 km/h (2 Bft)
21.11.2017 05:00 4,1 C 97 % 1019,0 hPa 0,3 l/m 5,3 km/h (1 Bft) O-NO 3,7 C 4,1 C 12,6 km/h (3 Bft)
21.11.2017 06:00 4,3 C 97 % 1018,9 hPa 0,3 l/m 5,4 km/h (1 Bft) O-NO 3,8 C 4,2 C 12,9 km/h (3 Bft)
21.11.2017 07:00 4,5 C 97 % 1018,8 hPa 0,3 l/m 4,4 km/h (1 Bft) O 4,1 C 4,5 C 13,3 km/h (3 Bft)
21.11.2017 08:00 4,7 C 97 % 1018,6 hPa 0,3 l/m 4,6 km/h (1 Bft) O 4,2 C 4,7 C 13,2 km/h (3 Bft)
21.11.2017 09:00 5,1 C 96 % 1018,8 hPa 0,3 l/m 4,9 km/h (1 Bft) NO 4,5 C 5,1 C 13,8 km/h (3 Bft)
21.11.2017 10:00 6,1 C 95 % 1018,7 hPa 0,0 l/m 5,3 km/h (1 Bft) O-NO 5,4 C 5,8 C 14,3 km/h (3 Bft)
21.11.2017 11:00 8,1 C 88 % 1018,1 hPa 0,0 l/m 7,2 km/h (2 Bft) O-NO 6,3 C 7,3 C 15,4 km/h (3 Bft)
21.11.2017 12:00 9,5 C 81 % 1017,6 hPa 0,0 l/m 7,6 km/h (2 Bft) O 6,5 C 8,5 C 17,0 km/h (3 Bft)
21.11.2017 13:00 8,8 C 81 % 1017,1 hPa 0,0 l/m 6,1 km/h (2 Bft) O 5,7 C 8,1 C 14,9 km/h (3 Bft)
21.11.2017 14:00 8,9 C 81 % 1016,7 hPa 0,0 l/m 2,9 km/h (1 Bft) O-NO 5,9 C 8,9 C 7,9 km/h (2 Bft)
21.11.2017 15:00 9,1 C 80 % 1016,6 hPa 0,0 l/m 4,3 km/h (1 Bft) O 5,8 C 9,1 C 10,5 km/h (2 Bft)
21.11.2017 16:00 8,5 C 80 % 1016,3 hPa 0,0 l/m 4,4 km/h (1 Bft) NO 5,3 C 8,5 C 11,9 km/h (2 Bft)
21.11.2017 17:00 8,0 C 82 % 1016,5 hPa 0,0 l/m 2,6 km/h (1 Bft) O-NO 5,1 C 8,0 C 7,9 km/h (2 Bft)
21.11.2017 18:00 8,2 C 79 % 1016,3 hPa 0,0 l/m 5,0 km/h (1 Bft) O-NO 4,8 C 8,1 C 13,2 km/h (3 Bft)
21.11.2017 19:00 8,5 C 76 % 1016,0 hPa 0,0 l/m 5,8 km/h (2 Bft) O-SO 4,6 C 8,4 C 15,0 km/h (3 Bft)
21.11.2017 20:00 8,4 C 76 % 1016,0 hPa 0,0 l/m 5,4 km/h (1 Bft) O-NO 4,3 C 8,2 C 12,9 km/h (3 Bft)
21.11.2017 21:00 8,0 C 77 % 1015,8 hPa 0,0 l/m 4,1 km/h (1 Bft) O-NO 4,2 C 8,0 C 11,0 km/h (2 Bft)
21.11.2017 22:00 7,1 C 81 % 1015,7 hPa 0,0 l/m 1,1 km/h (0 Bft) O-NO 4,1 C 7,1 C 5,2 km/h (1 Bft)
21.11.2017 23:00 7,2 C 81 % 1015,5 hPa 0,0 l/m 3,2 km/h (1 Bft) O 4,2 C 7,2 C 8,3 km/h (2 Bft)
22.11.2017 00:00 7,9 C 78 % 1015,3 hPa 0,0 l/m 3,9 km/h (1 Bft) O-NO 4,3 C 7,9 C 9,8 km/h (2 Bft)
22.11.2017 01:00 8,4 C 75 % 1015,0 hPa 0,0 l/m 3,8 km/h (1 Bft) O-NO 4,2 C 8,3 C 10,7 km/h (2 Bft)
22.11.2017 02:00 8,0 C 76 % 1014,8 hPa 0,0 l/m 2,3 km/h (1 Bft) O-NO 4,0 C 8,0 C 6,9 km/h (2 Bft)
22.11.2017 03:00 7,8 C 77 % 1014,4 hPa 0,0 l/m 3,2 km/h (1 Bft) O-NO 4,1 C 7,8 C 8,7 km/h (2 Bft)
22.11.2017 04:00 8,5 C 74 % 1014,0 hPa 0,0 l/m 3,8 km/h (1 Bft) O 4,2 C 8,5 C 11,3 km/h (2 Bft)
22.11.2017 05:00 8,8 C 72 % 1013,8 hPa 0,0 l/m 4,3 km/h (1 Bft) O-NO 4,1 C 8,8 C 12,5 km/h (2 Bft)
22.11.2017 06:00 8,7 C 72 % 1013,4 hPa 0,0 l/m 3,9 km/h (1 Bft) O 4,0 C 8,7 C 11,3 km/h (2 Bft)
22.11.2017 07:00 8,7 C 73 % 1013,2 hPa 0,0 l/m 4,8 km/h (1 Bft) O-NO 4,0 C 8,7 C 11,6 km/h (2 Bft)
22.11.2017 08:00 9,1 C 70 % 1013,0 hPa 0,0 l/m 5,8 km/h (2 Bft) NO 3,9 C 8,9 C 14,4 km/h (3 Bft)
22.11.2017 09:00 10,5 C 64 % 1012,9 hPa 0,0 l/m 5,2 km/h (1 Bft) O-NO 4,0 C 10,4 C 13,7 km/h (3 Bft)
22.11.2017 10:00 12,0 C 59 % 1013,0 hPa 0,0 l/m 6,0 km/h (2 Bft) N-NO 4,3 C 11,9 C 15,3 km/h (3 Bft)
22.11.2017 11:00 13,8 C 52 % 1012,9 hPa 0,0 l/m 4,6 km/h (1 Bft) NO 4,2 C 13,8 C 10,3 km/h (2 Bft)
22.11.2017 12:00 15,1 C 48 % 1012,6 hPa 0,0 l/m 4,2 km/h (1 Bft) NO 4,0 C 15,1 C 10,4 km/h (2 Bft)
22.11.2017 13:00 15,8 C 46 % 1012,2 hPa 0,0 l/m 4,4 km/h (1 Bft) O-NO 4,0 C 15,8 C 10,6 km/h (2 Bft)
22.11.2017 14:00 16,2 C 44 % 1011,6 hPa 0,0 l/m 3,4 km/h (1 Bft) O-NO 3,9 C 16,2 C 7,9 km/h (2 Bft)
22.11.2017 15:00 15,4 C 51 % 1011,2 hPa 0,0 l/m 1,5 km/h (1 Bft) O-NO 5,4 C 15,4 C 4,3 km/h (1 Bft)
22.11.2017 16:00 11,0 C 67 % 1011,2 hPa 0,0 l/m 0,2 km/h (0 Bft) O-NO 4,9 C 11,0 C 1,2 km/h (1 Bft)
22.11.2017 17:00 7,3 C 77 % 1011,2 hPa 0,0 l/m 0,3 km/h (0 Bft) SO 3,6 C 7,3 C 1,7 km/h (1 Bft)
22.11.2017 18:00 4,5 C 86 % 1011,1 hPa 0,0 l/m 0,0 km/h (0 Bft) SO 2,3 C 4,5 C 0,5 km/h (0 Bft)
22.11.2017 19:00 3,1 C 90 % 1011,0 hPa 0,0 l/m 0,0 km/h (0 Bft) SO 1,6 C 3,1 C 0,1 km/h (0 Bft)
22.11.2017 20:00 2,1 C 91 % 1010,6 hPa 0,0 l/m 0,1 km/h (0 Bft) SO 0,9 C 2,1 C 0,8 km/h (0 Bft)
22.11.2017 21:00 1,7 C 92 % 1010,4 hPa 0,0 l/m 1,1 km/h (0 Bft) SO 0,6 C 1,7 C 4,7 km/h (1 Bft)
22.11.2017 22:00 4,3 C 82 % 1010,3 hPa 0,0 l/m 3,0 km/h (1 Bft) NO 1,4 C 4,3 C 10,1 km/h (2 Bft)
22.11.2017 23:00 5,1 C 76 % 1010,1 hPa 0,0 l/m 3,3 km/h (1 Bft) O-NO 1,2 C 5,1 C 8,8 km/h (2 Bft)
23.11.2017 00:00 4,3 C 78 % 1010,0 hPa 0,0 l/m 1,2 km/h (1 Bft) SO 0,9 C 4,3 C 3,3 km/h (1 Bft)
23.11.2017 01:00 1,4 C 88 % 1009,9 hPa 0,0 l/m 0,1 km/h (0 Bft) N-NO -0,4 C 1,4 C 1,3 km/h (1 Bft)
23.11.2017 02:00 -0,1 C 91 % 1010,2 hPa 0,0 l/m 0,2 km/h (0 Bft) O-SO -1,3 C -0,1 C 1,3 km/h (1 Bft)
23.11.2017 03:00 0,0 C 93 % 1010,3 hPa 0,0 l/m 0,4 km/h (0 Bft) O -1,0 C 0,0 C 2,5 km/h (1 Bft)
23.11.2017 04:00 1,4 C 90 % 1010,3 hPa 0,0 l/m 0,7 km/h (0 Bft) O -0,1 C 1,4 C 4,0 km/h (1 Bft)
23.11.2017 05:00 0,8 C 89 % 1010,5 hPa 0,0 l/m 0,1 km/h (0 Bft) O-NO -0,8 C 0,8 C 1,2 km/h (1 Bft)
23.11.2017 06:00 1,7 C 87 % 1010,5 hPa 0,0 l/m 2,1 km/h (1 Bft) N-NO -0,2 C 1,7 C 7,0 km/h (2 Bft)
23.11.2017 07:00 2,7 C 85 % 1010,8 hPa 0,0 l/m 5,1 km/h (1 Bft) O-NO 0,5 C 2,7 C 14,1 km/h (3 Bft)
23.11.2017 08:00 3,4 C 86 % 1011,3 hPa 0,0 l/m 3,0 km/h (1 Bft) NO 1,2 C 3,4 C 9,3 km/h (2 Bft)
23.11.2017 09:00 5,2 C 83 % 1011,8 hPa 0,0 l/m 4,0 km/h (1 Bft) NO 2,5 C 5,2 C 11,3 km/h (2 Bft)
23.11.2017 10:00 6,8 C 79 % 1012,3 hPa 0,0 l/m 3,3 km/h (1 Bft) N-NO 3,4 C 6,8 C 9,5 km/h (2 Bft)
23.11.2017 11:00 10,2 C 69 % 1012,3 hPa 0,0 l/m 3,9 km/h (1 Bft) N-NO 4,7 C 10,2 C 9,7 km/h (2 Bft)
23.11.2017 12:00 14,4 C 50 % 1012,2 hPa 0,0 l/m 8,5 km/h (2 Bft) O-NO 4,2 C 13,1 C 16,5 km/h (3 Bft)
23.11.2017 13:00 14,2 C 51 % 1012,1 hPa 0,0 l/m 8,4 km/h (2 Bft) O-NO 4,1 C 13,0 C 15,8 km/h (3 Bft)
23.11.2017 14:00 14,5 C 51 % 1012,3 hPa 0,0 l/m 8,4 km/h (2 Bft) NO 4,4 C 13,3 C 15,5 km/h (3 Bft)
23.11.2017 15:00 14,1 C 53 % 1012,7 hPa 0,0 l/m 7,6 km/h (2 Bft) O-NO 4,5 C 13,1 C 13,9 km/h (3 Bft)
23.11.2017 16:00 13,1 C 56 % 1013,1 hPa 0,0 l/m 6,9 km/h (2 Bft) O-NO 4,5 C 12,4 C 13,5 km/h (3 Bft)
23.11.2017 17:00 12,7 C 58 % 1013,5 hPa 0,0 l/m 5,8 km/h (2 Bft) O-NO 4,6 C 12,5 C 11,6 km/h (2 Bft)
23.11.2017 18:00 12,6 C 58 % 1013,9 hPa 0,0 l/m 4,6 km/h (1 Bft) NO 4,7 C 12,5 C 8,8 km/h (2 Bft)
23.11.2017 19:00 10,5 C 65 % 1014,4 hPa 0,0 l/m 0,9 km/h (0 Bft) N 4,2 C 10,5 C 2,5 km/h (1 Bft)
23.11.2017 20:00 7,6 C 76 % 1014,8 hPa 0,0 l/m 0,3 km/h (0 Bft) N 3,5 C 7,6 C 1,2 km/h (1 Bft)
23.11.2017 21:00 6,1 C 81 % 1015,1 hPa 0,0 l/m 0,1 km/h (0 Bft) N 3,1 C 6,1 C 0,5 km/h (0 Bft)
23.11.2017 22:00 5,1 C 85 % 1015,1 hPa 0,0 l/m 0,1 km/h (0 Bft) S-SW 2,8 C 5,1 C 0,9 km/h (0 Bft)
23.11.2017 23:00 5,3 C 86 % 1015,0 hPa 0,0 l/m 0,7 km/h (0 Bft) N 3,1 C 5,3 C 1,9 km/h (1 Bft)
24.11.2017 00:00 6,6 C 82 % 1015,0 hPa 0,0 l/m 1,6 km/h (1 Bft) SW 3,8 C 6,6 C 4,9 km/h (1 Bft)
24.11.2017 01:00 8,3 C 77 % 1014,6 hPa 0,0 l/m 1,4 km/h (1 Bft) W-NW 4,6 C 8,3 C 5,5 km/h (2 Bft)
24.11.2017 02:00 9,8 C 75 % 1014,5 hPa 0,0 l/m 2,9 km/h (1 Bft) NO 5,6 C 9,8 C 7,9 km/h (2 Bft)
24.11.2017 03:00 9,1 C 76 % 1014,1 hPa 0,0 l/m 1,0 km/h (0 Bft) O-NO 5,0 C 9,1 C 4,0 km/h (1 Bft)
24.11.2017 04:00 6,3 C 84 % 1013,7 hPa 0,0 l/m 0,8 km/h (0 Bft) SW 3,8 C 6,3 C 2,3 km/h (1 Bft)
24.11.2017 05:00 6,0 C 86 % 1013,5 hPa 0,0 l/m 1,4 km/h (1 Bft) O-NO 3,9 C 6,0 C 5,8 km/h (2 Bft)
24.11.2017 06:00 6,2 C 85 % 1013,1 hPa 0,0 l/m 5,0 km/h (1 Bft) NO 3,9 C 6,1 C 13,6 km/h (3 Bft)
24.11.2017 07:00 5,8 C 86 % 1013,3 hPa 0,0 l/m 3,8 km/h (1 Bft) O-NO 3,6 C 5,8 C 10,6 km/h (2 Bft)
24.11.2017 08:00 5,5 C 87 % 1013,4 hPa 0,0 l/m 1,1 km/h (1 Bft) O 3,5 C 5,5 C 5,4 km/h (1 Bft)
24.11.2017 09:00 7,4 C 83 % 1013,3 hPa 0,0 l/m 1,4 km/h (1 Bft) S 4,7 C 7,4 C 4,7 km/h (1 Bft)
24.11.2017 10:00 9,4 C 78 % 1013,2 hPa 0,0 l/m 4,2 km/h (1 Bft) N 5,9 C 9,4 C 11,4 km/h (2 Bft)
24.11.2017 11:00 12,9 C 67 % 1012,6 hPa 0,0 l/m 5,5 km/h (2 Bft) O-NO 6,9 C 12,6 C 12,9 km/h (3 Bft)
24.11.2017 12:00 14,1 C 61 % 1012,6 hPa 0,0 l/m 6,6 km/h (2 Bft) O-NO 6,7 C 13,6 C 15,9 km/h (3 Bft)
24.11.2017 13:00 13,4 C 63 % 1013,0 hPa 0,0 l/m 7,0 km/h (2 Bft) O-NO 6,5 C 12,9 C 17,3 km/h (3 Bft)
24.11.2017 14:00 11,7 C 75 % 1013,6 hPa 0,3 l/m 5,1 km/h (1 Bft) O-NO 7,4 C 11,6 C 14,8 km/h (3 Bft)
24.11.2017 15:00 9,8 C 89 % 1014,0 hPa 1,0 l/m 3,4 km/h (1 Bft) O-NO 8,1 C 9,8 C 9,4 km/h (2 Bft)
24.11.2017 16:00 9,2 C 91 % 1013,5 hPa 0,5 l/m 2,8 km/h (1 Bft) O-NO 7,8 C 9,2 C 7,8 km/h (2 Bft)
24.11.2017 17:00 8,7 C 91 % 1013,4 hPa 0,3 l/m 1,9 km/h (1 Bft) O-NO 7,4 C 8,7 C 7,0 km/h (2 Bft)
24.11.2017 18:00 8,5 C 92 % 1013,7 hPa 0,5 l/m 4,0 km/h (1 Bft) O-NO 7,3 C 8,5 C 10,1 km/h (2 Bft)
24.11.2017 19:00 8,3 C 94 % 1014,0 hPa 1,3 l/m 3,0 km/h (1 Bft) O-NO 7,4 C 8,3 C 7,9 km/h (2 Bft)
24.11.2017 20:00 8,3 C 95 % 1014,0 hPa 1,3 l/m 2,9 km/h (1 Bft) O-NO 7,5 C 8,3 C 7,4 km/h (2 Bft)
24.11.2017 21:00 8,3 C 95 % 1013,8 hPa 0,3 l/m 4,0 km/h (1 Bft) O-NO 7,5 C 8,3 C 10,3 km/h (2 Bft)
24.11.2017 22:00 8,0 C 93 % 1013,3 hPa 0,0 l/m 2,6 km/h (1 Bft) O-NO 7,0 C 8,0 C 8,3 km/h (2 Bft)
24.11.2017 23:00 7,0 C 95 % 1012,7 hPa 0,0 l/m 0,3 km/h (0 Bft) SO 6,2 C 7,0 C 1,4 km/h (1 Bft)
25.11.2017 00:00 6,9 C 96 % 1012,1 hPa 0,0 l/m 0,0 km/h (0 Bft) O-NO 6,2 C 6,9 C 0,1 km/h (0 Bft)
25.11.2017 01:00 6,9 C 96 % 1011,3 hPa 0,5 l/m 0,0 km/h (0 Bft) O-NO 6,3 C 6,9 C 0,0 km/h (0 Bft)
25.11.2017 02:00 7,0 C 97 % 1010,4 hPa 1,0 l/m 0,3 km/h (0 Bft) O-NO 6,5 C 7,0 C 1,7 km/h (1 Bft)
25.11.2017 03:00 7,3 C 96 % 1009,0 hPa 3,3 l/m 2,1 km/h (1 Bft) O-NO 6,8 C 7,3 C 6,0 km/h (2 Bft)
25.11.2017 04:00 7,5 C 96 % 1007,9 hPa 6,1 l/m 1,7 km/h (1 Bft) O 7,0 C 7,5 C 5,1 km/h (1 Bft)
25.11.2017 05:00 7,0 C 95 % 1007,5 hPa 2,3 l/m 1,6 km/h (1 Bft) O 6,3 C 7,0 C 4,5 km/h (1 Bft)
25.11.2017 06:00 5,9 C 95 % 1007,3 hPa 2,0 l/m 0,9 km/h (0 Bft) O 5,1 C 5,9 C 3,7 km/h (1 Bft)
25.11.2017 07:00 5,3 C 96 % 1007,6 hPa 3,0 l/m 1,8 km/h (1 Bft) O-NO 4,7 C 5,3 C 5,3 km/h (1 Bft)
25.11.2017 08:00 4,7 C 95 % 1008,2 hPa 1,8 l/m 2,9 km/h (1 Bft) O 3,9 C 4,7 C 7,9 km/h (2 Bft)
25.11.2017 09:00 4,0 C 94 % 1009,1 hPa 1,3 l/m 3,8 km/h (1 Bft) O-NO 3,2 C 4,0 C 12,1 km/h (2 Bft)
25.11.2017 10:00 3,1 C 95 % 1010,3 hPa 1,5 l/m 4,5 km/h (1 Bft) O-NO 2,3 C 3,1 C 11,4 km/h (2 Bft)
25.11.2017 11:00 2,5 C 95 % 1011,1 hPa 1,8 l/m 3,1 km/h (1 Bft) O-NO 1,8 C 2,5 C 6,2 km/h (2 Bft)
25.11.2017 12:00 2,7 C 96 % 1011,4 hPa 0,8 l/m 2,2 km/h (1 Bft) O 2,1 C 2,7 C 5,8 km/h (2 Bft)
25.11.2017 13:00 3,5 C 96 % 1011,5 hPa 0,3 l/m 4,3 km/h (1 Bft) O-NO 2,9 C 3,5 C 10,6 km/h (2 Bft)
25.11.2017 14:00 3,7 C 95 % 1011,9 hPa 0,0 l/m 4,8 km/h (1 Bft) NO 2,9 C 3,7 C 13,8 km/h (3 Bft)
25.11.2017 15:00 3,5 C 94 % 1012,5 hPa 0,0 l/m 4,8 km/h (1 Bft) O-NO 2,6 C 3,3 C 13,0 km/h (3 Bft)
25.11.2017 16:00 3,4 C 93 % 1013,0 hPa 0,3 l/m 4,9 km/h (1 Bft) O-NO 2,4 C 3,3 C 14,4 km/h (3 Bft)
25.11.2017 17:00 2,8 C 94 % 1014,2 hPa 1,5 l/m 3,1 km/h (1 Bft) O-NO 1,9 C 2,8 C 10,2 km/h (2 Bft)
25.11.2017 18:00 2,2 C 94 % 1015,1 hPa 1,8 l/m 2,5 km/h (1 Bft) O 1,3 C 2,2 C 8,4 km/h (2 Bft)
25.11.2017 19:00 1,6 C 95 % 1016,2 hPa 1,0 l/m 1,3 km/h (1 Bft) O 0,9 C 1,6 C 4,7 km/h (1 Bft)
25.11.2017 20:00 1,1 C 96 % 1017,1 hPa 0,3 l/m 0,4 km/h (0 Bft) O 0,5 C 1,1 C 1,7 km/h (1 Bft)
25.11.2017 21:00 1,0 C 96 % 1018,1 hPa 0,0 l/m 0,3 km/h (0 Bft) O-NO 0,4 C 1,0 C 2,1 km/h (1 Bft)
25.11.2017 22:00 0,3 C 96 % 1019,0 hPa 0,0 l/m 0,8 km/h (0 Bft) NO -0,3 C 0,3 C 3,2 km/h (1 Bft)
25.11.2017 23:00 0,1 C 96 % 1020,1 hPa 0,0 l/m 1,2 km/h (1 Bft) O -0,4 C 0,1 C 3,5 km/h (1 Bft)
26.11.2017 00:00 -0,1 C 95 % 1020,8 hPa 0,0 l/m 2,0 km/h (1 Bft) O-NO -0,8 C -0,1 C 6,2 km/h (2 Bft)
26.11.2017 01:00 -0,2 C 95 % 1021,2 hPa 0,0 l/m 1,8 km/h (1 Bft) O -0,9 C -0,2 C 6,6 km/h (2 Bft)
26.11.2017 02:00 -0,4 C 92 % 1021,9 hPa 0,0 l/m 2,3 km/h (1 Bft) O-NO -1,5 C -0,4 C 9,0 km/h (2 Bft)
26.11.2017 03:00 -0,8 C 92 % 1022,6 hPa 0,0 l/m 2,0 km/h (1 Bft) O-NO -2,0 C -0,8 C 7,2 km/h (2 Bft)
26.11.2017 04:00 -0,8 C 94 % 1023,1 hPa 0,0 l/m 1,6 km/h (1 Bft) NO -1,7 C -0,8 C 4,7 km/h (1 Bft)
26.11.2017 05:00 -0,8 C 93 % 1023,3 hPa 0,0 l/m 1,4 km/h (1 Bft) O-NO -1,8 C -0,8 C 4,7 km/h (1 Bft)
26.11.2017 06:00 -0,7 C 94 % 1023,5 hPa 0,0 l/m 2,2 km/h (1 Bft) O -1,6 C -0,7 C 6,3 km/h (2 Bft)
26.11.2017 07:00 -0,7 C 94 % 1023,9 hPa 0,0 l/m 2,7 km/h (1 Bft) NO -1,6 C -0,7 C 7,9 km/h (2 Bft)
26.11.2017 08:00 -0,5 C 94 % 1024,4 hPa 0,0 l/m 2,0 km/h (1 Bft) N-NO -1,4 C -0,5 C 6,4 km/h (2 Bft)
26.11.2017 09:00 -0,3 C 94 % 1024,8 hPa 0,0 l/m 2,8 km/h (1 Bft) N-NO -1,1 C -0,3 C 7,6 km/h (2 Bft)
26.11.2017 10:00 0,1 C 94 % 1025,2 hPa 0,0 l/m 1,5 km/h (1 Bft) O-NO -0,8 C 0,1 C 4,7 km/h (1 Bft)
26.11.2017 11:00 0,7 C 92 % 1025,1 hPa 0,0 l/m 3,4 km/h (1 Bft) O-NO -0,4 C 0,6 C 8,4 km/h (2 Bft)
26.11.2017 12:00 1,0 C 91 % 1025,2 hPa 0,0 l/m 3,8 km/h (1 Bft) O-NO -0,3 C 1,0 C 9,3 km/h (2 Bft)
26.11.2017 13:00 1,0 C 91 % 1025,2 hPa 1,3 l/m 2,4 km/h (1 Bft) O -0,3 C 1,0 C 7,8 km/h (2 Bft)
26.11.2017 14:00 0,7 C 92 % 1025,5 hPa 0,5 l/m 3,7 km/h (1 Bft) O -0,5 C 0,7 C 12,4 km/h (2 Bft)
26.11.2017 15:00 0,7 C 91 % 1025,8 hPa 0,3 l/m 2,0 km/h (1 Bft) O-NO -0,6 C 0,7 C 7,5 km/h (2 Bft)
26.11.2017 16:00 0,4 C 91 % 1026,3 hPa 0,3 l/m 1,6 km/h (1 Bft) O-NO -0,9 C 0,4 C 5,1 km/h (1 Bft)
26.11.2017 17:00 0,3 C 92 % 1026,7 hPa 0,0 l/m 1,5 km/h (1 Bft) O-NO -0,9 C 0,3 C 4,4 km/h (1 Bft)
26.11.2017 18:00 0,1 C 93 % 1027,2 hPa 0,0 l/m 3,0 km/h (1 Bft) O -0,9 C 0,1 C 9,5 km/h (2 Bft)
26.11.2017 19:00 -0,1 C 92 % 1027,6 hPa 0,0 l/m 2,3 km/h (1 Bft) O-NO -1,2 C -0,1 C 7,6 km/h (2 Bft)
26.11.2017 20:00 0,1 C 93 % 1027,8 hPa 0,0 l/m 2,9 km/h (1 Bft) O-NO -0,9 C 0,1 C 7,8 km/h (2 Bft)
26.11.2017 21:00 -0,0 C 94 % 1028,0 hPa 0,0 l/m 3,6 km/h (1 Bft) O-NO -0,9 C -0,0 C 10,1 km/h (2 Bft)
26.11.2017 22:00 -0,1 C 94 % 1027,9 hPa 0,0 l/m 1,8 km/h (1 Bft) O-NO -1,0 C -0,1 C 6,4 km/h (2 Bft)
26.11.2017 23:00 -0,0 C 93 % 1028,0 hPa 0,0 l/m 3,9 km/h (1 Bft) O-NO -1,1 C -0,1 C 8,4 km/h (2 Bft)
Min-Datum _ 26.11.17 22.11.17 25.11.17 - 26.11.17 - 26.11.17 26.11.17 25.11.17
_ Min-Zeit 03:40 14:10 06:10 - 17:55 - 03:40 23:53 23:57
Minimum _ -1,1 C 42 % 1007,2 hPa - 0,0 km/h (0 Bft) - -2,2 C -1,6 C 0,0 km/h (0 Bft)
Max-Datum _ 22.11.17 25.11.17 26.11.17 25.11.17 23.11.17 - 24.11.17 22.11.17 23.11.17
_ Max-Zeit 14:25 04:40 23:00 04:40 12:49 - 15:35 14:25 12:55
Maximum _ 16,4 C 97 % 1028,1 hPa 6,1 l/m 17,7 km/h
O-NO (3 Bft)
- 8,1 C 16,4 C 30,6 km/h
O-NO (5 Bft)
Durchschnitt _ 5,2 C 85 % 1016,5 hPa #43,2 l/m 3,0 km/h (1 Bft) O-NO 2,7 C 5,1 C 8,2 km/h (2 Bft)